sensor_id;sensor_type;location;lat;lon;timestamp;P1;durP1;ratioP1;P2;durP2;ratioP2
57113;SDS011;42994;51.606;9.988;2023-12-20T00:00:05;9.32;;;7.78;;
57113;SDS011;42994;51.606;9.988;2023-12-20T00:02:35;8.75;;;7.50;;
57113;SDS011;42994;51.606;9.988;2023-12-20T00:05:02;10.32;;;7.70;;
57113;SDS011;42994;51.606;9.988;2023-12-20T00:07:37;10.18;;;7.32;;
57113;SDS011;42994;51.606;9.988;2023-12-20T00:10:06;12.50;;;7.63;;
57113;SDS011;42994;51.606;9.988;2023-12-20T00:12:33;12.77;;;8.45;;
57113;SDS011;42994;51.606;9.988;2023-12-20T00:15:21;9.32;;;8.10;;
57113;SDS011;42994;51.606;9.988;2023-12-20T00:17:48;9.55;;;7.78;;
57113;SDS011;42994;51.606;9.988;2023-12-20T00:20:27;11.68;;;8.27;;
57113;SDS011;42994;51.606;9.988;2023-12-20T00:22:56;12.45;;;9.68;;
57113;SDS011;42994;51.606;9.988;2023-12-20T00:25:24;11.20;;;7.97;;
57113;SDS011;42994;51.606;9.988;2023-12-20T00:27:51;10.10;;;7.28;;
57113;SDS011;42994;51.606;9.988;2023-12-20T00:30:23;8.38;;;7.35;;
57113;SDS011;42994;51.606;9.988;2023-12-20T00:32:49;10.25;;;7.30;;
57113;SDS011;42994;51.606;9.988;2023-12-20T00:35:18;8.52;;;6.47;;
57113;SDS011;42994;51.606;9.988;2023-12-20T00:37:48;7.25;;;5.75;;
57113;SDS011;42994;51.606;9.988;2023-12-20T00:40:15;7.18;;;6.00;;
57113;SDS011;42994;51.606;9.988;2023-12-20T00:42:42;7.20;;;5.70;;
57113;SDS011;42994;51.606;9.988;2023-12-20T00:45:09;8.38;;;6.25;;
57113;SDS011;42994;51.606;9.988;2023-12-20T00:47:38;7.10;;;5.43;;
57113;SDS011;42994;51.606;9.988;2023-12-20T00:50:08;7.95;;;5.93;;
57113;SDS011;42994;51.606;9.988;2023-12-20T00:52:36;6.18;;;5.00;;
57113;SDS011;42994;51.606;9.988;2023-12-20T00:55:03;6.75;;;5.55;;
57113;SDS011;42994;51.606;9.988;2023-12-20T00:57:30;7.53;;;5.18;;
57113;SDS011;42994;51.606;9.988;2023-12-20T00:59:57;6.60;;;5.07;;
57113;SDS011;42994;51.606;9.988;2023-12-20T01:02:28;6.10;;;5.35;;
57113;SDS011;42994;51.606;9.988;2023-12-20T01:04:56;7.55;;;6.22;;
57113;SDS011;42994;51.606;9.988;2023-12-20T01:07:23;7.50;;;6.20;;
57113;SDS011;42994;51.606;9.988;2023-12-20T01:09:50;6.65;;;5.22;;
57113;SDS011;42994;51.606;9.988;2023-12-20T01:12:17;6.65;;;5.40;;
57113;SDS011;42994;51.606;9.988;2023-12-20T01:14:45;6.97;;;5.43;;
57113;SDS011;42994;51.606;9.988;2023-12-20T01:17:22;6.40;;;5.50;;
57113;SDS011;42994;51.606;9.988;2023-12-20T01:19:52;7.90;;;5.45;;
57113;SDS011;42994;51.606;9.988;2023-12-20T01:22:26;8.18;;;6.50;;
57113;SDS011;42994;51.606;9.988;2023-12-20T01:24:56;10.05;;;6.40;;
57113;SDS011;42994;51.606;9.988;2023-12-20T01:27:23;9.50;;;5.78;;
57113;SDS011;42994;51.606;9.988;2023-12-20T01:29:50;6.97;;;5.68;;
57113;SDS011;42994;51.606;9.988;2023-12-20T01:32:17;8.00;;;6.07;;
57113;SDS011;42994;51.606;9.988;2023-12-20T01:34:44;8.52;;;6.15;;
57113;SDS011;42994;51.606;9.988;2023-12-20T01:37:12;9.07;;;5.97;;
57113;SDS011;42994;51.606;9.988;2023-12-20T01:39:41;8.73;;;6.35;;
57113;SDS011;42994;51.606;9.988;2023-12-20T01:42:16;7.35;;;6.03;;
57113;SDS011;42994;51.606;9.988;2023-12-20T01:50:49;8.13;;;6.25;;
57113;SDS011;42994;51.606;9.988;2023-12-20T01:53:23;10.98;;;6.85;;
57113;SDS011;42994;51.606;9.988;2023-12-20T01:55:56;9.02;;;6.85;;
57113;SDS011;42994;51.606;9.988;2023-12-20T01:58:24;8.52;;;6.65;;
57113;SDS011;42994;51.606;9.988;2023-12-20T02:00:52;13.35;;;7.15;;
57113;SDS011;42994;51.606;9.988;2023-12-20T02:03:20;8.82;;;6.70;;
57113;SDS011;42994;51.606;9.988;2023-12-20T02:05:47;10.05;;;7.25;;
57113;SDS011;42994;51.606;9.988;2023-12-20T02:08:15;10.65;;;7.47;;
57113;SDS011;42994;51.606;9.988;2023-12-20T02:10:42;12.75;;;6.88;;
57113;SDS011;42994;51.606;9.988;2023-12-20T02:13:10;8.75;;;6.80;;
57113;SDS011;42994;51.606;9.988;2023-12-20T02:15:37;9.15;;;6.22;;
57113;SDS011;42994;51.606;9.988;2023-12-20T02:18:05;10.43;;;6.80;;
57113;SDS011;42994;51.606;9.988;2023-12-20T02:20:32;7.75;;;6.10;;
57113;SDS011;42994;51.606;9.988;2023-12-20T02:23:00;10.05;;;7.20;;
57113;SDS011;42994;51.606;9.988;2023-12-20T02:25:27;11.85;;;6.53;;
57113;SDS011;42994;51.606;9.988;2023-12-20T02:27:54;8.88;;;6.90;;
57113;SDS011;42994;51.606;9.988;2023-12-20T02:30:21;9.27;;;6.57;;
57113;SDS011;42994;51.606;9.988;2023-12-20T02:32:48;10.60;;;7.55;;
57113;SDS011;42994;51.606;9.988;2023-12-20T02:35:16;9.90;;;7.57;;
57113;SDS011;42994;51.606;9.988;2023-12-20T02:37:43;13.38;;;5.97;;
57113;SDS011;42994;51.606;9.988;2023-12-20T02:40:11;9.50;;;6.28;;
57113;SDS011;42994;51.606;9.988;2023-12-20T02:42:38;12.88;;;6.35;;
57113;SDS011;42994;51.606;9.988;2023-12-20T02:45:05;7.55;;;5.35;;
57113;SDS011;42994;51.606;9.988;2023-12-20T02:47:33;9.25;;;5.80;;
57113;SDS011;42994;51.606;9.988;2023-12-20T02:50:00;7.63;;;5.90;;
57113;SDS011;42994;51.606;9.988;2023-12-20T02:52:27;8.27;;;6.15;;
57113;SDS011;42994;51.606;9.988;2023-12-20T02:54:54;8.32;;;5.93;;
57113;SDS011;42994;51.606;9.988;2023-12-20T02:57:22;12.82;;;5.38;;
57113;SDS011;42994;51.606;9.988;2023-12-20T02:59:49;11.20;;;6.03;;
57113;SDS011;42994;51.606;9.988;2023-12-20T03:02:16;7.47;;;5.35;;
57113;SDS011;42994;51.606;9.988;2023-12-20T03:04:42;9.15;;;5.43;;
57113;SDS011;42994;51.606;9.988;2023-12-20T03:07:09;9.65;;;5.50;;
57113;SDS011;42994;51.606;9.988;2023-12-20T03:09:37;9.27;;;5.07;;
57113;SDS011;42994;51.606;9.988;2023-12-20T03:12:04;11.95;;;5.65;;
57113;SDS011;42994;51.606;9.988;2023-12-20T03:14:32;10.38;;;5.63;;
57113;SDS011;42994;51.606;9.988;2023-12-20T03:16:59;12.82;;;6.30;;
57113;SDS011;42994;51.606;9.988;2023-12-20T03:19:26;7.60;;;4.68;;
57113;SDS011;42994;51.606;9.988;2023-12-20T03:21:52;7.95;;;4.50;;
57113;SDS011;42994;51.606;9.988;2023-12-20T03:24:19;8.15;;;5.15;;
57113;SDS011;42994;51.606;9.988;2023-12-20T03:26:46;9.23;;;4.80;;
57113;SDS011;42994;51.606;9.988;2023-12-20T03:29:12;7.20;;;4.72;;
57113;SDS011;42994;51.606;9.988;2023-12-20T03:31:41;8.65;;;4.78;;
57113;SDS011;42994;51.606;9.988;2023-12-20T03:34:07;8.82;;;4.78;;
57113;SDS011;42994;51.606;9.988;2023-12-20T03:36:34;7.88;;;3.92;;
57113;SDS011;42994;51.606;9.988;2023-12-20T03:39:00;7.97;;;3.42;;
57113;SDS011;42994;51.606;9.988;2023-12-20T03:41:28;6.47;;;3.30;;
57113;SDS011;42994;51.606;9.988;2023-12-20T03:43:54;6.63;;;3.50;;
57113;SDS011;42994;51.606;9.988;2023-12-20T03:46:21;12.27;;;3.88;;
57113;SDS011;42994;51.606;9.988;2023-12-20T03:48:49;4.30;;;2.90;;
57113;SDS011;42994;51.606;9.988;2023-12-20T03:51:16;8.27;;;3.80;;
57113;SDS011;42994;51.606;9.988;2023-12-20T03:53:43;5.35;;;2.67;;
57113;SDS011;42994;51.606;9.988;2023-12-20T03:56:09;8.40;;;3.03;;
57113;SDS011;42994;51.606;9.988;2023-12-20T03:58:36;9.65;;;2.50;;
57113;SDS011;42994;51.606;9.988;2023-12-20T04:01:03;7.05;;;2.38;;
57113;SDS011;42994;51.606;9.988;2023-12-20T04:06:03;5.38;;;2.67;;
57113;SDS011;42994;51.606;9.988;2023-12-20T04:08:30;8.15;;;2.38;;
57113;SDS011;42994;51.606;9.988;2023-12-20T04:10:57;6.65;;;2.20;;
57113;SDS011;42994;51.606;9.988;2023-12-20T04:13:24;10.73;;;2.50;;
57113;SDS011;42994;51.606;9.988;2023-12-20T04:15:50;9.88;;;2.35;;
57113;SDS011;42994;51.606;9.988;2023-12-20T04:18:17;11.25;;;2.30;;
57113;SDS011;42994;51.606;9.988;2023-12-20T04:20:44;6.95;;;1.98;;
57113;SDS011;42994;51.606;9.988;2023-12-20T04:23:12;4.20;;;1.48;;
57113;SDS011;42994;51.606;9.988;2023-12-20T04:25:39;9.00;;;2.42;;
57113;SDS011;42994;51.606;9.988;2023-12-20T04:28:06;8.98;;;2.03;;
57113;SDS011;42994;51.606;9.988;2023-12-20T04:30:33;6.20;;;1.75;;
57113;SDS011;42994;51.606;9.988;2023-12-20T04:33:00;8.00;;;1.83;;
57113;SDS011;42994;51.606;9.988;2023-12-20T04:35:27;8.05;;;1.88;;
57113;SDS011;42994;51.606;9.988;2023-12-20T04:37:54;8.00;;;1.95;;
57113;SDS011;42994;51.606;9.988;2023-12-20T04:40:23;4.65;;;1.55;;
57113;SDS011;42994;51.606;9.988;2023-12-20T04:42:49;7.03;;;2.58;;
57113;SDS011;42994;51.606;9.988;2023-12-20T04:45:16;4.60;;;1.60;;
57113;SDS011;42994;51.606;9.988;2023-12-20T04:47:44;5.07;;;1.60;;
57113;SDS011;42994;51.606;9.988;2023-12-20T04:50:12;10.18;;;2.03;;
57113;SDS011;42994;51.606;9.988;2023-12-20T04:52:39;9.55;;;1.90;;
57113;SDS011;42994;51.606;9.988;2023-12-20T04:55:07;10.48;;;2.90;;
57113;SDS011;42994;51.606;9.988;2023-12-20T04:57:35;5.18;;;2.35;;
57113;SDS011;42994;51.606;9.988;2023-12-20T05:00:02;12.82;;;1.85;;
57113;SDS011;42994;51.606;9.988;2023-12-20T05:02:30;5.35;;;1.85;;
57113;SDS011;42994;51.606;9.988;2023-12-20T05:04:57;6.18;;;2.15;;
57113;SDS011;42994;51.606;9.988;2023-12-20T05:07:24;3.92;;;1.77;;
57113;SDS011;42994;51.606;9.988;2023-12-20T05:09:50;12.68;;;3.38;;
57113;SDS011;42994;51.606;9.988;2023-12-20T05:12:18;7.00;;;1.98;;
57113;SDS011;42994;51.606;9.988;2023-12-20T05:14:46;9.63;;;2.25;;
57113;SDS011;42994;51.606;9.988;2023-12-20T05:17:14;10.95;;;2.55;;
57113;SDS011;42994;51.606;9.988;2023-12-20T05:19:41;10.20;;;2.20;;
57113;SDS011;42994;51.606;9.988;2023-12-20T05:22:08;18.13;;;3.53;;
57113;SDS011;42994;51.606;9.988;2023-12-20T05:24:35;8.65;;;2.30;;
57113;SDS011;42994;51.606;9.988;2023-12-20T05:27:02;6.32;;;2.50;;
57113;SDS011;42994;51.606;9.988;2023-12-20T05:29:29;4.80;;;1.88;;
57113;SDS011;42994;51.606;9.988;2023-12-20T05:31:57;7.05;;;2.28;;
57113;SDS011;42994;51.606;9.988;2023-12-20T05:34:24;7.18;;;2.13;;
57113;SDS011;42994;51.606;9.988;2023-12-20T05:36:51;8.32;;;2.47;;
57113;SDS011;42994;51.606;9.988;2023-12-20T05:39:18;6.28;;;2.08;;
57113;SDS011;42994;51.606;9.988;2023-12-20T05:41:45;5.18;;;2.00;;
57113;SDS011;42994;51.606;9.988;2023-12-20T05:44:12;9.68;;;2.35;;
57113;SDS011;42994;51.606;9.988;2023-12-20T05:46:38;8.35;;;2.47;;
57113;SDS011;42994;51.606;9.988;2023-12-20T05:49:07;6.90;;;2.05;;
57113;SDS011;42994;51.606;9.988;2023-12-20T05:51:34;5.47;;;2.92;;
57113;SDS011;42994;51.606;9.988;2023-12-20T05:54:01;14.02;;;3.05;;
57113;SDS011;42994;51.606;9.988;2023-12-20T05:56:28;11.57;;;2.95;;
57113;SDS011;42994;51.606;9.988;2023-12-20T05:58:54;13.13;;;3.20;;
57113;SDS011;42994;51.606;9.988;2023-12-20T06:01:21;8.35;;;2.45;;
57113;SDS011;42994;51.606;9.988;2023-12-20T06:03:48;15.25;;;2.88;;
57113;SDS011;42994;51.606;9.988;2023-12-20T06:06:17;8.88;;;2.80;;
57113;SDS011;42994;51.606;9.988;2023-12-20T06:08:43;13.63;;;2.42;;
57113;SDS011;42994;51.606;9.988;2023-12-20T06:11:10;11.05;;;2.10;;
57113;SDS011;42994;51.606;9.988;2023-12-20T06:13:37;7.88;;;2.28;;
57113;SDS011;42994;51.606;9.988;2023-12-20T06:16:05;9.73;;;2.78;;
57113;SDS011;42994;51.606;9.988;2023-12-20T06:18:32;16.92;;;2.58;;
57113;SDS011;42994;51.606;9.988;2023-12-20T06:20:59;12.70;;;2.40;;
57113;SDS011;42994;51.606;9.988;2023-12-20T06:23:27;10.18;;;3.08;;
57113;SDS011;42994;51.606;9.988;2023-12-20T06:25:54;12.20;;;2.58;;
57113;SDS011;42994;51.606;9.988;2023-12-20T06:28:22;10.38;;;2.75;;
57113;SDS011;42994;51.606;9.988;2023-12-20T06:30:49;10.15;;;2.70;;
57113;SDS011;42994;51.606;9.988;2023-12-20T06:33:17;15.68;;;3.33;;
57113;SDS011;42994;51.606;9.988;2023-12-20T06:35:46;7.75;;;2.88;;
57113;SDS011;42994;51.606;9.988;2023-12-20T06:38:13;7.78;;;2.28;;
57113;SDS011;42994;51.606;9.988;2023-12-20T06:40:41;15.38;;;2.80;;
57113;SDS011;42994;51.606;9.988;2023-12-20T06:43:09;10.20;;;2.97;;
57113;SDS011;42994;51.606;9.988;2023-12-20T06:45:35;11.13;;;3.25;;
57113;SDS011;42994;51.606;9.988;2023-12-20T06:48:02;7.97;;;2.65;;
57113;SDS011;42994;51.606;9.988;2023-12-20T06:50:30;8.40;;;3.05;;
57113;SDS011;42994;51.606;9.988;2023-12-20T06:52:57;12.63;;;3.05;;
57113;SDS011;42994;51.606;9.988;2023-12-20T06:55:24;12.02;;;2.38;;
57113;SDS011;42994;51.606;9.988;2023-12-20T06:57:52;16.90;;;3.95;;
57113;SDS011;42994;51.606;9.988;2023-12-20T07:00:19;14.23;;;2.83;;
57113;SDS011;42994;51.606;9.988;2023-12-20T07:02:46;16.83;;;3.42;;
57113;SDS011;42994;51.606;9.988;2023-12-20T07:05:15;13.73;;;3.20;;
57113;SDS011;42994;51.606;9.988;2023-12-20T07:07:45;11.23;;;3.20;;
57113;SDS011;42994;51.606;9.988;2023-12-20T07:10:11;10.68;;;3.28;;
57113;SDS011;42994;51.606;9.988;2023-12-20T07:12:38;7.90;;;2.95;;
57113;SDS011;42994;51.606;9.988;2023-12-20T07:15:07;10.25;;;2.85;;
57113;SDS011;42994;51.606;9.988;2023-12-20T07:17:34;12.75;;;3.20;;
57113;SDS011;42994;51.606;9.988;2023-12-20T07:20:02;15.60;;;2.88;;
57113;SDS011;42994;51.606;9.988;2023-12-20T07:22:42;11.15;;;3.40;;
57113;SDS011;42994;51.606;9.988;2023-12-20T07:25:09;13.73;;;3.50;;
57113;SDS011;42994;51.606;9.988;2023-12-20T07:27:36;9.32;;;3.20;;
57113;SDS011;42994;51.606;9.988;2023-12-20T07:30:03;12.80;;;3.08;;
57113;SDS011;42994;51.606;9.988;2023-12-20T07:32:34;12.82;;;3.45;;
57113;SDS011;42994;51.606;9.988;2023-12-20T07:35:01;10.90;;;3.30;;
57113;SDS011;42994;51.606;9.988;2023-12-20T07:37:28;17.02;;;4.30;;
57113;SDS011;42994;51.606;9.988;2023-12-20T07:39:55;21.75;;;4.32;;
57113;SDS011;42994;51.606;9.988;2023-12-20T07:42:22;21.98;;;3.88;;
57113;SDS011;42994;51.606;9.988;2023-12-20T07:44:49;20.38;;;3.53;;
57113;SDS011;42994;51.606;9.988;2023-12-20T07:47:16;15.68;;;2.65;;
57113;SDS011;42994;51.606;9.988;2023-12-20T07:49:48;13.13;;;3.58;;
57113;SDS011;42994;51.606;9.988;2023-12-20T07:52:16;12.43;;;2.75;;
57113;SDS011;42994;51.606;9.988;2023-12-20T07:54:44;11.15;;;4.22;;
57113;SDS011;42994;51.606;9.988;2023-12-20T07:57:11;27.30;;;8.52;;
57113;SDS011;42994;51.606;9.988;2023-12-20T07:59:38;43.00;;;21.40;;
57113;SDS011;42994;51.606;9.988;2023-12-20T08:02:05;45.20;;;22.98;;
57113;SDS011;42994;51.606;9.988;2023-12-20T08:04:33;25.60;;;8.88;;
57113;SDS011;42994;51.606;9.988;2023-12-20T08:07:01;34.03;;;11.82;;
57113;SDS011;42994;51.606;9.988;2023-12-20T08:09:28;25.60;;;14.15;;
57113;SDS011;42994;51.606;9.988;2023-12-20T08:11:56;14.52;;;8.18;;
57113;SDS011;42994;51.606;9.988;2023-12-20T08:14:24;13.70;;;4.60;;
57113;SDS011;42994;51.606;9.988;2023-12-20T08:16:51;16.08;;;4.97;;
57113;SDS011;42994;51.606;9.988;2023-12-20T08:19:18;15.88;;;4.82;;
57113;SDS011;42994;51.606;9.988;2023-12-20T08:21:45;14.95;;;4.28;;
57113;SDS011;42994;51.606;9.988;2023-12-20T08:24:13;15.30;;;4.45;;
57113;SDS011;42994;51.606;9.988;2023-12-20T08:26:40;12.27;;;4.03;;
57113;SDS011;42994;51.606;9.988;2023-12-20T08:29:07;13.55;;;3.97;;
57113;SDS011;42994;51.606;9.988;2023-12-20T08:31:34;14.27;;;4.43;;
57113;SDS011;42994;51.606;9.988;2023-12-20T08:34:01;16.42;;;4.07;;
57113;SDS011;42994;51.606;9.988;2023-12-20T08:36:27;18.33;;;4.25;;
57113;SDS011;42994;51.606;9.988;2023-12-20T08:38:54;10.48;;;4.65;;
57113;SDS011;42994;51.606;9.988;2023-12-20T08:41:24;18.50;;;4.22;;
57113;SDS011;42994;51.606;9.988;2023-12-20T08:43:50;16.48;;;3.80;;
57113;SDS011;42994;51.606;9.988;2023-12-20T08:46:17;11.82;;;3.63;;
57113;SDS011;42994;51.606;9.988;2023-12-20T08:48:44;22.40;;;5.82;;
57113;SDS011;42994;51.606;9.988;2023-12-20T08:51:11;17.95;;;4.32;;
57113;SDS011;42994;51.606;9.988;2023-12-20T08:53:39;20.27;;;4.82;;
57113;SDS011;42994;51.606;9.988;2023-12-20T08:56:06;16.85;;;4.13;;
57113;SDS011;42994;51.606;9.988;2023-12-20T08:58:34;12.07;;;3.95;;
57113;SDS011;42994;51.606;9.988;2023-12-20T09:01:01;14.73;;;4.18;;
57113;SDS011;42994;51.606;9.988;2023-12-20T09:03:31;17.20;;;4.82;;
57113;SDS011;42994;51.606;9.988;2023-12-20T09:05:58;24.10;;;4.78;;
57113;SDS011;42994;51.606;9.988;2023-12-20T09:08:27;11.23;;;3.30;;
57113;SDS011;42994;51.606;9.988;2023-12-20T09:13:44;13.80;;;3.25;;
57113;SDS011;42994;51.606;9.988;2023-12-20T09:16:20;16.92;;;5.20;;
57113;SDS011;42994;51.606;9.988;2023-12-20T09:24:03;13.20;;;4.10;;
57113;SDS011;42994;51.606;9.988;2023-12-20T09:26:33;19.17;;;4.32;;
57113;SDS011;42994;51.606;9.988;2023-12-20T09:29:02;17.48;;;3.63;;
57113;SDS011;42994;51.606;9.988;2023-12-20T09:31:29;14.10;;;3.42;;
57113;SDS011;42994;51.606;9.988;2023-12-20T09:33:57;15.63;;;3.75;;
57113;SDS011;42994;51.606;9.988;2023-12-20T09:36:28;8.93;;;3.00;;
57113;SDS011;42994;51.606;9.988;2023-12-20T09:39:05;20.05;;;3.67;;
57113;SDS011;42994;51.606;9.988;2023-12-20T09:41:46;9.05;;;3.13;;
57113;SDS011;42994;51.606;9.988;2023-12-20T09:44:29;11.70;;;2.67;;
57113;SDS011;42994;51.606;9.988;2023-12-20T09:46:57;17.25;;;4.15;;
57113;SDS011;42994;51.606;9.988;2023-12-20T09:49:33;10.27;;;2.90;;
57113;SDS011;42994;51.606;9.988;2023-12-20T09:52:08;11.95;;;3.40;;
57113;SDS011;42994;51.606;9.988;2023-12-20T09:54:37;16.02;;;3.10;;
57113;SDS011;42994;51.606;9.988;2023-12-20T09:57:13;16.88;;;4.43;;
57113;SDS011;42994;51.606;9.988;2023-12-20T09:59:54;9.55;;;4.07;;
57113;SDS011;42994;51.606;9.988;2023-12-20T10:02:21;11.20;;;2.97;;
57113;SDS011;42994;51.606;9.988;2023-12-20T10:05:02;17.50;;;3.55;;
57113;SDS011;42994;51.606;9.988;2023-12-20T10:07:45;11.35;;;3.17;;
57113;SDS011;42994;51.606;9.988;2023-12-20T10:10:16;10.40;;;2.67;;
57113;SDS011;42994;51.606;9.988;2023-12-20T10:12:47;6.00;;;2.95;;
57113;SDS011;42994;51.606;9.988;2023-12-20T10:15:31;11.57;;;3.33;;
57113;SDS011;42994;51.606;9.988;2023-12-20T10:17:59;15.75;;;4.78;;
57113;SDS011;42994;51.606;9.988;2023-12-20T10:20:26;9.32;;;3.83;;
57113;SDS011;42994;51.606;9.988;2023-12-20T10:22:55;13.38;;;3.50;;
57113;SDS011;42994;51.606;9.988;2023-12-20T10:25:22;9.02;;;2.80;;
57113;SDS011;42994;51.606;9.988;2023-12-20T10:27:49;9.88;;;3.38;;
57113;SDS011;42994;51.606;9.988;2023-12-20T10:30:36;12.73;;;3.25;;
57113;SDS011;42994;51.606;9.988;2023-12-20T10:33:05;11.35;;;2.80;;
57113;SDS011;42994;51.606;9.988;2023-12-20T10:35:32;13.25;;;3.20;;
57113;SDS011;42994;51.606;9.988;2023-12-20T10:38:00;8.02;;;3.00;;
57113;SDS011;42994;51.606;9.988;2023-12-20T10:40:30;13.27;;;3.35;;
57113;SDS011;42994;51.606;9.988;2023-12-20T10:42:57;10.02;;;3.22;;
57113;SDS011;42994;51.606;9.988;2023-12-20T10:45:26;12.07;;;3.63;;
57113;SDS011;42994;51.606;9.988;2023-12-20T10:47:54;11.43;;;3.42;;
57113;SDS011;42994;51.606;9.988;2023-12-20T10:50:24;6.27;;;3.20;;
57113;SDS011;42994;51.606;9.988;2023-12-20T10:52:52;6.63;;;2.65;;
57113;SDS011;42994;51.606;9.988;2023-12-20T10:55:22;12.02;;;3.13;;
57113;SDS011;42994;51.606;9.988;2023-12-20T10:57:49;17.80;;;4.00;;
57113;SDS011;42994;51.606;9.988;2023-12-20T11:00:18;20.40;;;6.88;;
57113;SDS011;42994;51.606;9.988;2023-12-20T11:02:51;11.73;;;4.65;;
57113;SDS011;42994;51.606;9.988;2023-12-20T11:05:36;11.00;;;2.95;;
57113;SDS011;42994;51.606;9.988;2023-12-20T11:08:20;10.48;;;3.55;;
57113;SDS011;42994;51.606;9.988;2023-12-20T11:10:54;13.48;;;4.22;;
57113;SDS011;42994;51.606;9.988;2023-12-20T11:16:31;11.43;;;3.13;;
57113;SDS011;42994;51.606;9.988;2023-12-20T11:19:01;8.40;;;2.83;;
57113;SDS011;42994;51.606;9.988;2023-12-20T11:21:39;8.30;;;2.90;;
57113;SDS011;42994;51.606;9.988;2023-12-20T11:24:09;15.10;;;3.97;;
57113;SDS011;42994;51.606;9.988;2023-12-20T11:26:46;11.00;;;2.95;;
57113;SDS011;42994;51.606;9.988;2023-12-20T11:32:27;7.82;;;2.60;;
57113;SDS011;42994;51.606;9.988;2023-12-20T11:35:16;9.73;;;3.05;;
57113;SDS011;42994;51.606;9.988;2023-12-20T11:37:44;9.80;;;3.28;;
57113;SDS011;42994;51.606;9.988;2023-12-20T11:40:14;17.77;;;7.97;;
57113;SDS011;42994;51.606;9.988;2023-12-20T11:42:43;11.50;;;3.45;;
57113;SDS011;42994;51.606;9.988;2023-12-20T11:45:11;7.45;;;4.00;;
57113;SDS011;42994;51.606;9.988;2023-12-20T11:47:42;11.20;;;3.03;;
57113;SDS011;42994;51.606;9.988;2023-12-20T11:50:11;12.85;;;3.63;;
57113;SDS011;42994;51.606;9.988;2023-12-20T11:52:38;17.65;;;3.95;;
57113;SDS011;42994;51.606;9.988;2023-12-20T11:55:07;8.98;;;3.30;;
57113;SDS011;42994;51.606;9.988;2023-12-20T11:57:34;9.15;;;4.13;;
57113;SDS011;42994;51.606;9.988;2023-12-20T12:00:02;10.70;;;3.45;;
57113;SDS011;42994;51.606;9.988;2023-12-20T12:02:36;12.23;;;3.50;;
57113;SDS011;42994;51.606;9.988;2023-12-20T12:05:03;10.63;;;3.00;;
57113;SDS011;42994;51.606;9.988;2023-12-20T12:07:33;10.60;;;2.90;;
57113;SDS011;42994;51.606;9.988;2023-12-20T12:10:01;9.70;;;3.40;;
57113;SDS011;42994;51.606;9.988;2023-12-20T12:12:28;9.82;;;4.50;;
57113;SDS011;42994;51.606;9.988;2023-12-20T12:14:56;6.75;;;3.35;;
57113;SDS011;42994;51.606;9.988;2023-12-20T12:17:23;11.82;;;3.20;;
57113;SDS011;42994;51.606;9.988;2023-12-20T12:19:50;10.55;;;3.70;;
57113;SDS011;42994;51.606;9.988;2023-12-20T12:22:16;5.32;;;3.35;;
57113;SDS011;42994;51.606;9.988;2023-12-20T12:24:47;7.13;;;3.42;;
57113;SDS011;42994;51.606;9.988;2023-12-20T12:27:14;8.70;;;3.08;;
57113;SDS011;42994;51.606;9.988;2023-12-20T12:29:42;7.47;;;3.17;;
57113;SDS011;42994;51.606;9.988;2023-12-20T12:32:26;6.85;;;3.20;;
57113;SDS011;42994;51.606;9.988;2023-12-20T12:34:53;10.00;;;4.85;;
57113;SDS011;42994;51.606;9.988;2023-12-20T12:37:20;7.88;;;3.20;;
57113;SDS011;42994;51.606;9.988;2023-12-20T12:39:48;17.23;;;4.07;;
57113;SDS011;42994;51.606;9.988;2023-12-20T12:42:14;8.27;;;3.30;;
57113;SDS011;42994;51.606;9.988;2023-12-20T12:44:41;11.35;;;3.55;;
57113;SDS011;42994;51.606;9.988;2023-12-20T12:47:07;6.45;;;3.13;;
57113;SDS011;42994;51.606;9.988;2023-12-20T12:49:34;8.35;;;3.50;;
57113;SDS011;42994;51.606;9.988;2023-12-20T12:52:01;10.35;;;4.97;;
57113;SDS011;42994;51.606;9.988;2023-12-20T12:54:28;16.63;;;7.18;;
57113;SDS011;42994;51.606;9.988;2023-12-20T12:56:56;12.68;;;4.30;;
57113;SDS011;42994;51.606;9.988;2023-12-20T12:59:23;7.57;;;4.60;;
57113;SDS011;42994;51.606;9.988;2023-12-20T13:01:50;16.02;;;4.68;;
57113;SDS011;42994;51.606;9.988;2023-12-20T13:04:16;13.80;;;6.78;;
57113;SDS011;42994;51.606;9.988;2023-12-20T13:06:43;21.35;;;13.98;;
57113;SDS011;42994;51.606;9.988;2023-12-20T13:09:10;19.58;;;8.15;;
57113;SDS011;42994;51.606;9.988;2023-12-20T13:11:36;17.80;;;6.90;;
57113;SDS011;42994;51.606;9.988;2023-12-20T13:14:04;15.63;;;8.13;;
57113;SDS011;42994;51.606;9.988;2023-12-20T13:16:31;31.65;;;16.55;;
57113;SDS011;42994;51.606;9.988;2023-12-20T13:18:59;18.92;;;6.90;;
57113;SDS011;42994;51.606;9.988;2023-12-20T13:21:26;19.67;;;5.70;;
57113;SDS011;42994;51.606;9.988;2023-12-20T13:23:52;16.45;;;4.93;;
57113;SDS011;42994;51.606;9.988;2023-12-20T13:26:19;23.00;;;7.00;;
57113;SDS011;42994;51.606;9.988;2023-12-20T13:28:46;12.77;;;5.47;;
57113;SDS011;42994;51.606;9.988;2023-12-20T13:31:14;18.90;;;6.18;;
57113;SDS011;42994;51.606;9.988;2023-12-20T13:33:40;14.27;;;5.88;;
57113;SDS011;42994;51.606;9.988;2023-12-20T13:36:07;18.27;;;9.93;;
57113;SDS011;42994;51.606;9.988;2023-12-20T13:38:34;11.05;;;8.23;;
57113;SDS011;42994;51.606;9.988;2023-12-20T13:41:01;12.05;;;5.57;;
57113;SDS011;42994;51.606;9.988;2023-12-20T13:43:28;19.05;;;6.95;;
57113;SDS011;42994;51.606;9.988;2023-12-20T13:45:54;8.52;;;4.63;;
57113;SDS011;42994;51.606;9.988;2023-12-20T13:48:22;13.13;;;5.22;;
57113;SDS011;42994;51.606;9.988;2023-12-20T13:50:51;10.20;;;4.80;;
57113;SDS011;42994;51.606;9.988;2023-12-20T13:53:19;13.52;;;5.03;;
57113;SDS011;42994;51.606;9.988;2023-12-20T13:55:46;17.63;;;6.45;;
57113;SDS011;42994;51.606;9.988;2023-12-20T13:58:13;21.70;;;5.47;;
57113;SDS011;42994;51.606;9.988;2023-12-20T14:00:39;12.57;;;5.95;;
57113;SDS011;42994;51.606;9.988;2023-12-20T14:03:06;18.50;;;6.50;;
57113;SDS011;42994;51.606;9.988;2023-12-20T14:05:36;22.67;;;10.35;;
57113;SDS011;42994;51.606;9.988;2023-12-20T14:08:03;16.63;;;6.95;;
57113;SDS011;42994;51.606;9.988;2023-12-20T14:10:30;15.30;;;6.30;;
57113;SDS011;42994;51.606;9.988;2023-12-20T14:12:59;9.15;;;5.80;;
57113;SDS011;42994;51.606;9.988;2023-12-20T14:15:25;13.23;;;6.13;;
57113;SDS011;42994;51.606;9.988;2023-12-20T14:17:52;12.00;;;5.20;;
57113;SDS011;42994;51.606;9.988;2023-12-20T14:20:19;14.88;;;6.15;;
57113;SDS011;42994;51.606;9.988;2023-12-20T14:22:47;16.17;;;6.60;;
57113;SDS011;42994;51.606;9.988;2023-12-20T14:25:14;20.25;;;8.00;;
57113;SDS011;42994;51.606;9.988;2023-12-20T14:27:41;14.00;;;5.38;;
57113;SDS011;42994;51.606;9.988;2023-12-20T14:30:09;24.52;;;7.70;;
57113;SDS011;42994;51.606;9.988;2023-12-20T14:32:39;15.60;;;7.05;;
57113;SDS011;42994;51.606;9.988;2023-12-20T14:35:06;19.20;;;7.88;;
57113;SDS011;42994;51.606;9.988;2023-12-20T14:37:33;15.00;;;4.80;;
57113;SDS011;42994;51.606;9.988;2023-12-20T14:40:01;16.77;;;8.60;;
57113;SDS011;42994;51.606;9.988;2023-12-20T14:42:28;10.73;;;4.88;;
57113;SDS011;42994;51.606;9.988;2023-12-20T14:44:55;9.38;;;4.38;;
57113;SDS011;42994;51.606;9.988;2023-12-20T14:47:21;19.27;;;5.05;;
57113;SDS011;42994;51.606;9.988;2023-12-20T14:49:50;15.13;;;4.40;;
57113;SDS011;42994;51.606;9.988;2023-12-20T14:52:17;13.45;;;4.38;;
57113;SDS011;42994;51.606;9.988;2023-12-20T14:54:44;15.45;;;4.60;;
57113;SDS011;42994;51.606;9.988;2023-12-20T14:57:12;8.48;;;3.88;;
57113;SDS011;42994;51.606;9.988;2023-12-20T14:59:38;11.50;;;4.32;;
57113;SDS011;42994;51.606;9.988;2023-12-20T15:02:05;12.07;;;4.32;;
57113;SDS011;42994;51.606;9.988;2023-12-20T15:04:32;18.92;;;8.52;;
57113;SDS011;42994;51.606;9.988;2023-12-20T15:06:59;10.80;;;3.13;;
57113;SDS011;42994;51.606;9.988;2023-12-20T15:09:26;9.32;;;3.53;;